Time;durP1;ratioP1;P1;durP2;ratioP2;P2;SDS_P1;SDS_P2;PMS_P1;PMS_P2;Temp;Humidity;BMP_temperature;BMP_pressure;BME280_temperature;BME280_humidity;BME280_pressure;Samples;Min_cycle;Max_cycle;Signal;HPM_P1;HPM_P2
2023/06/22 00:00:58;;;;;;;9.13;7.93;;;;;;;18.62;83.95;96749.06;5052150;28;20056;-70
2023/06/22 00:03:26;;;;;;;12.18;8.52;;;;;;;18.52;84.04;96750.63;5052285;28;20041;-70
2023/06/22 00:05:54;;;;;;;8.05;7.28;;;;;;;18.43;84.69;96746.81;5052494;28;20064;-69
2023/06/22 00:08:23;;;;;;;10.32;7.95;;;;;;;18.43;84.72;96757.41;5052723;28;20103;-70
2023/06/22 00:10:51;;;;;;;11.15;8.60;;;;;;;18.43;84.66;96755.59;5053738;28;20103;-70
2023/06/22 00:13:18;;;;;;;14.80;7.78;;;;;;;18.40;84.81;96753.16;5055932;28;20045;-70
2023/06/22 00:15:46;;;;;;;9.13;7.63;;;;;;;18.40;84.55;96753.16;5056021;28;20055;-70
2023/06/22 00:18:13;;;;;;;9.88;7.93;;;;;;;18.45;84.35;96758.13;5055996;28;20064;-69
2023/06/22 00:20:40;;;;;;;13.18;8.07;;;;;;;18.47;84.31;96752.72;5056010;28;20045;-70
2023/06/22 00:23:08;;;;;;;8.82;8.02;;;;;;;18.45;83.87;96747.53;5056129;28;20056;-70
2023/06/22 00:25:39;;;;;;;10.63;7.70;;;;;;;18.44;84.01;96740.56;5055661;28;20103;-69
2023/06/22 00:28:07;;;;;;;9.45;8.18;;;;;;;18.39;83.34;96743.50;5055732;28;20045;-69
2023/06/22 00:30:35;;;;;;;11.55;7.70;;;;;;;18.33;83.35;96751.84;5055794;28;20045;-69
2023/06/22 00:33:03;;;;;;;9.57;8.38;;;;;;;18.33;83.37;96756.31;5055548;28;20052;-69
2023/06/22 00:35:30;;;;;;;9.15;7.65;;;;;;;18.27;83.53;96747.00;5055692;28;20459;-69
2023/06/22 00:38:00;;;;;;;10.82;8.43;;;;;;;18.24;83.44;96757.78;5055606;28;20104;-69
2023/06/22 00:40:27;;;;;;;13.10;8.35;;;;;;;18.16;83.42;96759.13;5055600;28;20487;-69
2023/06/22 00:42:56;;;;;;;11.60;8.05;;;;;;;18.14;83.48;96753.06;5055385;28;20055;-69
2023/06/22 00:45:24;;;;;;;9.77;7.80;;;;;;;18.19;83.23;96760.72;5055356;28;20063;-69
2023/06/22 00:47:52;;;;;;;14.02;8.38;;;;;;;18.19;82.88;96758.91;5055497;28;20080;-69
2023/06/22 00:50:22;;;;;;;12.55;8.60;;;;;;;18.16;82.96;96758.28;5055223;28;20410;-69
2023/06/22 00:52:52;;;;;;;10.60;8.00;;;;;;;18.13;82.53;96758.47;5055408;28;20085;-69
2023/06/22 00:55:20;;;;;;;9.15;8.27;;;;;;;18.06;82.72;96758.84;5055322;28;20045;-69
2023/06/22 00:57:47;;;;;;;9.07;7.50;;;;;;;18.01;82.52;96758.31;5055117;28;20056;-69
2023/06/22 01:00:19;;;;;;;13.63;7.72;;;;;;;17.98;82.62;96763.78;5055039;28;20507;-69
2023/06/22 01:02:51;;;;;;;8.80;7.88;;;;;;;17.97;82.36;96755.94;5055173;28;20132;-70
2023/06/22 01:05:19;;;;;;;12.15;8.18;;;;;;;17.91;82.08;96760.69;5055096;28;20132;-70
2023/06/22 01:07:57;;;;;;;11.70;7.60;;;;;;;17.83;82.31;96754.19;5055117;28;20045;-69
2023/06/22 01:10:30;;;;;;;10.98;8.30;;;;;;;17.78;82.59;96747.41;5055008;28;20060;-69
2023/06/22 01:13:02;;;;;;;10.88;7.95;;;;;;;17.72;82.84;96747.78;5054882;28;20041;-69
2023/06/22 01:15:36;;;;;;;9.43;8.07;;;;;;;17.72;82.73;96744.28;5054894;28;20095;-69
2023/06/22 01:18:05;;;;;;;9.73;8.25;;;;;;;17.72;82.33;96745.13;5054937;28;20140;-70
2023/06/22 01:20:35;;;;;;;16.23;8.18;;;;;;;17.71;82.58;96737.28;5054819;28;20049;-69
2023/06/22 01:23:12;;;;;;;9.93;8.10;;;;;;;17.69;82.32;96740.03;5054365;28;20465;-69
2023/06/22 01:25:49;;;;;;;12.07;7.95;;;;;;;17.66;82.68;96730.50;5054688;28;20534;-70
2023/06/22 01:28:25;;;;;;;9.95;8.27;;;;;;;17.66;82.44;96724.38;5054788;28;20053;-69
2023/06/22 01:31:05;;;;;;;10.40;8.30;;;;;;;17.64;82.04;96734.22;5054564;28;20525;-69
2023/06/22 01:33:36;;;;;;;11.18;7.60;;;;;;;17.61;82.09;96724.66;5054592;28;20052;-69
2023/06/22 01:36:04;;;;;;;9.55;7.38;;;;;;;17.57;82.11;96723.16;5054436;28;20518;-70
2023/06/22 01:38:33;;;;;;;9.80;8.80;;;;;;;17.55;82.02;96725.06;5054437;28;20060;-70
2023/06/22 01:41:01;;;;;;;10.25;7.72;;;;;;;17.48;82.09;96729.03;5054439;28;20052;-69
2023/06/22 01:43:29;;;;;;;9.70;8.70;;;;;;;17.39;82.07;96730.44;5054357;28;20041;-69
2023/06/22 01:46:02;;;;;;;10.93;8.45;;;;;;;17.33;83.72;96729.06;5054231;28;20053;-69
2023/06/22 01:48:30;;;;;;;12.68;8.88;;;;;;;17.29;84.02;96731.06;5054271;28;20051;-70
2023/06/22 01:50:57;;;;;;;9.93;8.68;;;;;;;17.26;83.83;96733.88;5054123;28;20041;-70
2023/06/22 01:53:24;;;;;;;13.27;7.65;;;;;;;17.20;83.80;96741.31;5054185;28;20136;-69
2023/06/22 01:55:52;;;;;;;8.68;7.78;;;;;;;17.18;83.48;96729.06;5054147;28;20091;-69
2023/06/22 01:58:22;;;;;;;12.63;8.00;;;;;;;17.18;83.35;96736.13;5054178;28;20131;-70
2023/06/22 02:00:54;;;;;;;7.93;7.00;;;;;;;17.16;83.42;96727.47;5053889;28;20498;-69
2023/06/22 02:03:27;;;;;;;10.68;7.85;;;;;;;17.13;83.78;96725.03;5054041;28;20041;-69
2023/06/22 02:06:02;;;;;;;11.35;8.65;;;;;;;17.12;84.39;96733.88;5053851;28;20049;-69
2023/06/22 02:08:33;;;;;;;14.75;8.20;;;;;;;17.09;84.51;96731.41;5053941;28;20455;-69
2023/06/22 02:11:01;;;;;;;14.52;8.50;;;;;;;17.07;84.34;96744.75;5053734;28;20052;-70
2023/06/22 02:13:29;;;;;;;15.68;8.10;;;;;;;17.05;84.06;96742.16;5053716;28;20099;-69
2023/06/22 02:15:57;;;;;;;10.75;7.13;;;;;;;17.02;83.39;96747.63;5053679;28;20045;-69
2023/06/22 02:18:25;;;;;;;10.82;8.10;;;;;;;17.01;83.50;96748.56;5053723;28;20098;-70
2023/06/22 02:20:53;;;;;;;13.30;8.20;;;;;;;17.01;83.79;96753.00;5053793;28;20041;-70
2023/06/22 02:23:20;;;;;;;10.48;8.82;;;;;;;17.03;85.11;96754.59;5053615;28;20049;-70
2023/06/22 02:25:48;;;;;;;11.27;8.77;;;;;;;17.04;84.85;96760.75;5053431;28;20138;-69
2023/06/22 02:28:15;;;;;;;9.55;8.60;;;;;;;17.04;84.84;96756.31;5053414;28;20561;-70
2023/06/22 02:30:42;;;;;;;9.07;8.23;;;;;;;17.01;84.29;96756.47;5053514;28;20042;-69
2023/06/22 02:33:10;;;;;;;10.65;8.02;;;;;;;17.01;84.20;96761.78;5052858;28;20045;-69
2023/06/22 02:35:39;;;;;;;11.98;8.38;;;;;;;16.99;84.23;96755.75;5053356;28;20561;-69
2023/06/22 02:38:08;;;;;;;10.93;8.07;;;;;;;17.01;84.77;96756.47;5053394;28;20051;-69
2023/06/22 02:40:35;;;;;;;10.18;7.72;;;;;;;16.99;84.69;96760.16;5053333;28;20487;-69
2023/06/22 02:43:02;;;;;;;10.93;7.60;;;;;;;16.98;84.36;96764.59;5053334;28;20396;-69
2023/06/22 02:45:29;;;;;;;10.52;8.90;;;;;;;16.98;84.73;96763.75;5053142;28;20045;-69
2023/06/22 02:47:57;;;;;;;10.55;8.43;;;;;;;16.93;84.57;96770.19;5053204;28;20077;-69
2023/06/22 02:50:24;;;;;;;12.98;8.57;;;;;;;16.92;84.40;96768.47;5053253;28;20119;-69
2023/06/22 02:52:52;;;;;;;12.27;8.50;;;;;;;16.90;84.47;96766.88;5052995;28;20047;-70
2023/06/22 02:55:20;;;;;;;11.88;8.68;;;;;;;16.86;85.06;96768.81;5053105;28;20454;-69
2023/06/22 02:57:47;;;;;;;11.70;7.95;;;;;;;16.86;84.95;96768.00;5052995;28;20057;-69
2023/06/22 03:00:17;;;;;;;11.60;8.02;;;;;;;16.83;84.23;96769.03;5052877;28;20049;-69
2023/06/22 03:02:45;;;;;;;11.45;8.80;;;;;;;16.82;84.21;96764.69;5052989;28;20053;-69
2023/06/22 03:05:15;;;;;;;11.85;7.95;;;;;;;16.77;84.66;96772.88;5052969;28;20049;-69
2023/06/22 03:07:42;;;;;;;15.27;7.80;;;;;;;16.78;85.17;96768.44;5052982;28;20132;-69
2023/06/22 03:10:12;;;;;;;14.50;9.15;;;;;;;16.75;86.15;96766.00;5052894;28;20095;-70
2023/06/22 03:12:40;;;;;;;11.82;9.65;;;;;;;16.77;86.40;96766.75;5052921;28;20048;-69
2023/06/22 03:15:09;;;;;;;14.30;9.15;;;;;;;16.82;86.54;96767.31;5052853;28;20055;-69
2023/06/22 03:17:37;;;;;;;9.30;8.40;;;;;;;16.85;86.43;96756.56;5052768;28;20561;-69
2023/06/22 03:20:08;;;;;;;11.10;7.90;;;;;;;16.93;86.00;96762.25;5052971;28;20048;-69
2023/06/22 03:22:35;;;;;;;9.63;8.00;;;;;;;17.01;85.38;96768.88;5052844;28;20049;-69
2023/06/22 03:25:04;;;;;;;9.48;7.88;;;;;;;17.09;85.13;96765.75;5052680;28;20049;-69
2023/06/22 03:27:32;;;;;;;10.00;7.78;;;;;;;17.17;84.62;96760.88;5052929;28;20081;-69
2023/06/22 03:30:00;;;;;;;13.48;8.48;;;;;;;17.19;85.99;96764.28;5052876;28;20049;-69
2023/06/22 03:32:27;;;;;;;8.32;7.38;;;;;;;17.33;85.97;96768.69;5052726;28;20057;-69
2023/06/22 03:34:58;;;;;;;9.02;8.15;;;;;;;17.54;85.76;96773.59;5052842;28;20384;-69
2023/06/22 03:37:26;;;;;;;10.60;7.35;;;;;;;17.81;84.53;96778.94;5052649;28;20045;-69
2023/06/22 03:39:54;;;;;;;9.25;6.80;;;;;;;18.03;82.65;96772.25;5052719;28;20049;-69
2023/06/22 03:42:21;;;;;;;8.07;7.00;;;;;;;18.27;81.31;96774.28;5052720;28;20491;-69
2023/06/22 03:44:50;;;;;;;10.45;6.93;;;;;;;18.50;79.49;96773.72;5053991;28;20077;-69
2023/06/22 03:47:17;;;;;;;8.80;6.20;;;;;;;18.75;78.19;96772.91;5056593;28;20479;-69
2023/06/22 03:49:44;;;;;;;8.57;6.10;;;;;;;19.01;76.82;96770.31;5056470;28;20048;-69
2023/06/22 03:52:12;;;;;;;7.68;6.57;;;;;;;19.29;76.09;96771.06;5056486;28;20049;-69
2023/06/22 03:54:39;;;;;;;10.00;6.38;;;;;;;19.63;74.56;96773.13;5056508;28;20065;-69
2023/06/22 03:57:06;;;;;;;8.70;6.10;;;;;;;19.92;73.56;96767.53;5056465;28;20044;-69
2023/06/22 03:59:34;;;;;;;9.00;6.45;;;;;;;20.24;72.58;96762.66;5056468;28;20045;-69
2023/06/22 04:02:02;;;;;;;6.65;5.65;;;;;;;20.54;71.64;96769.31;5056187;28;20049;-69
2023/06/22 04:04:30;;;;;;;10.63;5.93;;;;;;;20.83;70.39;96763.59;5056263;28;20553;-69
2023/06/22 04:06:57;;;;;;;11.10;6.18;;;;;;;21.15;69.56;96775.38;5056078;28;20135;-69
2023/06/22 04:09:25;;;;;;;7.07;6.22;;;;;;;21.43;68.75;96771.41;5056093;28;20128;-69
2023/06/22 04:11:53;;;;;;;8.00;6.18;;;;;;;21.63;68.48;96773.47;5056199;28;20502;-69
2023/06/22 04:14:21;;;;;;;7.63;6.45;;;;;;;21.91;67.18;96763.31;5056228;28;20076;-69
2023/06/22 04:16:52;;;;;;;8.00;6.13;;;;;;;22.16;66.27;96767.47;5055854;28;20483;-69
2023/06/22 04:19:21;;;;;;;6.50;5.90;;;;;;;22.44;66.29;96761.66;5055979;28;20494;-69
2023/06/22 04:21:48;;;;;;;7.82;6.50;;;;;;;22.81;65.92;96766.63;5055900;28;20483;-69
2023/06/22 04:24:16;;;;;;;6.85;6.13;;;;;;;23.17;64.87;96771.59;5055882;28;20057;-69
2023/06/22 04:26:45;;;;;;;8.30;5.82;;;;;;;23.45;63.75;96773.75;5055711;28;20056;-69
2023/06/22 04:29:12;;;;;;;7.43;5.45;;;;;;;23.70;62.46;96776.91;5055686;28;20052;-69
2023/06/22 04:31:40;;;;;;;6.78;6.05;;;;;;;23.97;61.82;96775.44;5055674;28;20380;-69
2023/06/22 04:34:09;;;;;;;9.05;5.47;;;;;;;24.22;61.40;96782.13;5055699;28;20410;-69
2023/06/22 04:36:39;;;;;;;6.03;5.50;;;;;;;24.56;60.53;96786.22;5055585;28;20053;-69
2023/06/22 04:39:09;;;;;;;7.75;5.63;;;;;;;24.79;59.53;96793.09;5055573;28;20044;-69
2023/06/22 04:41:42;;;;;;;7.28;6.18;;;;;;;25.03;58.87;96789.16;5055619;28;20106;-69
2023/06/22 04:44:10;;;;;;;6.10;5.57;;;;;;;25.32;59.28;96788.25;5055564;28;20099;-69
2023/06/22 04:46:39;;;;;;;10.18;6.10;;;;;;;25.63;58.61;96796.06;5055522;28;20492;-69
2023/06/22 04:49:09;;;;;;;5.80;5.20;;;;;;;25.86;57.52;96793.00;5055438;28;20388;-69
2023/06/22 04:51:43;;;;;;;7.43;5.63;;;;;;;26.11;56.12;96791.44;5055478;28;20048;-69
2023/06/22 04:54:11;;;;;;;6.45;5.18;;;;;;;26.34;55.89;96791.03;5055363;28;20534;-69
2023/06/22 04:56:40;;;;;;;7.05;5.75;;;;;;;26.62;55.77;96798.16;5054631;28;20059;-69
2023/06/22 04:59:12;;;;;;;8.05;5.38;;;;;;;26.84;55.81;96794.16;5055358;28;20056;-69
2023/06/22 05:01:40;;;;;;;7.50;5.45;;;;;;;27.04;55.51;96798.53;5055227;28;20056;-69
2023/06/22 05:04:07;;;;;;;6.68;5.90;;;;;;;27.19;55.62;96796.13;5055196;28;20060;-69
2023/06/22 05:06:35;;;;;;;11.88;5.53;;;;;;;27.50;55.57;96792.94;5054973;28;20060;-69
2023/06/22 05:09:05;;;;;;;6.70;5.63;;;;;;;27.80;55.50;96801.50;5055082;28;20469;-69
2023/06/22 05:11:32;;;;;;;9.05;5.50;;;;;;;28.19;55.28;96797.44;5055055;28;20055;-69
2023/06/22 05:14:00;;;;;;;8.68;4.93;;;;;;;28.51;54.12;96805.78;5054933;28;20479;-69
2023/06/22 05:16:28;;;;;;;7.70;5.03;;;;;;;28.70;53.00;96807.31;5054917;28;20080;-69
2023/06/22 05:18:57;;;;;;;9.30;5.28;;;;;;;28.97;53.41;96805.34;5054944;28;20413;-69
2023/06/22 05:21:26;;;;;;;10.00;4.88;;;;;;;29.24;53.26;96805.13;5054781;28;20056;-69
2023/06/22 05:23:54;;;;;;;6.20;5.40;;;;;;;29.47;52.99;96802.53;5054844;28;20415;-68
2023/06/22 05:26:23;;;;;;;7.78;5.82;;;;;;;29.69;51.46;96800.16;5054623;28;20049;-68
2023/06/22 05:28:50;;;;;;;7.03;5.18;;;;;;;29.95;50.88;96800.91;5054736;28;20487;-68
2023/06/22 05:31:19;;;;;;;7.32;5.63;;;;;;;30.16;51.49;96803.03;5054521;28;20473;-68
2023/06/22 05:33:47;;;;;;;7.85;6.60;;;;;;;30.36;51.12;96795.31;5054757;28;20049;-68
2023/06/22 05:36:15;;;;;;;15.32;9.65;;;;;;;30.56;49.54;96794.00;5054513;28;20481;-68
2023/06/22 05:38:43;;;;;;;17.50;10.73;;;;;;;30.75;48.80;96800.78;5054637;28;20049;-68
2023/06/22 05:41:10;;;;;;;12.65;8.68;;;;;;;30.79;46.70;96799.41;5054699;28;20045;-68
2023/06/22 05:43:39;;;;;;;14.27;8.30;;;;;;;30.95;46.37;96798.47;5054325;28;20517;-68
2023/06/22 05:46:06;;;;;;;7.70;6.90;;;;;;;31.17;46.14;96795.91;5054279;28;20053;-68
2023/06/22 05:48:33;;;;;;;10.65;7.50;;;;;;;31.40;45.49;96797.72;5054238;28;20060;-68
2023/06/22 05:51:01;;;;;;;14.07;6.95;;;;;;;31.63;44.52;96799.50;5054244;28;20060;-68
2023/06/22 05:53:28;;;;;;;11.82;7.20;;;;;;;31.88;43.46;96799.22;5054095;28;20490;-68
2023/06/22 05:55:56;;;;;;;8.98;6.25;;;;;;;32.02;42.37;96798.38;5054271;28;20048;-68
2023/06/22 05:58:23;;;;;;;12.45;6.30;;;;;;;32.02;42.71;96792.97;5054096;28;20190;-69
2023/06/22 06:00:52;;;;;;;8.32;6.68;;;;;;;32.18;42.71;96791.09;5053953;28;20136;-68
2023/06/22 06:03:19;;;;;;;7.95;6.47;;;;;;;32.27;42.46;96792.63;5053966;28;20045;-68
2023/06/22 06:05:46;;;;;;;7.53;5.85;;;;;;;32.35;42.74;96797.09;5053997;28;20613;-69
2023/06/22 06:08:15;;;;;;;8.57;5.55;;;;;;;32.46;43.04;96801.16;5053019;28;20047;-69
2023/06/22 06:10:43;;;;;;;6.03;5.53;;;;;;;32.57;42.29;96805.28;5053966;28;20076;-69
2023/06/22 06:13:10;;;;;;;6.82;6.15;;;;;;;32.66;41.85;96797.84;5053936;28;20144;-69
2023/06/22 06:15:38;;;;;;;10.00;5.68;;;;;;;32.71;41.12;96795.38;5053853;28;20481;-69
2023/06/22 06:18:07;;;;;;;6.13;5.63;;;;;;;32.80;41.23;96792.56;5053702;28;20087;-69
2023/06/22 06:20:35;;;;;;;6.00;5.40;;;;;;;32.84;40.32;96796.56;5053711;28;20049;-68
2023/06/22 06:23:03;;;;;;;7.40;5.95;;;;;;;32.88;40.23;96804.09;5053685;28;20044;-69
2023/06/22 06:25:30;;;;;;;6.28;5.65;;;;;;;32.94;41.70;96790.78;5053447;28;20487;-69
2023/06/22 06:28:00;;;;;;;7.68;5.78;;;;;;;33.08;42.04;96791.78;5053610;28;20056;-69
2023/06/22 06:30:27;;;;;;;10.10;5.13;;;;;;;33.21;40.41;96794.59;5053521;28;20048;-69
2023/06/22 06:32:55;;;;;;;6.78;6.18;;;;;;;33.39;39.06;96802.22;5053467;28;20144;-69
2023/06/22 06:35:24;;;;;;;7.55;5.80;;;;;;;33.37;38.48;96798.88;5053336;28;20049;-69
2023/06/22 06:37:52;;;;;;;7.97;6.50;;;;;;;33.61;38.50;96804.03;5053437;28;20053;-69
2023/06/22 06:40:20;;;;;;;7.25;5.88;;;;;;;33.74;37.69;96790.56;5053491;28;20045;-69
2023/06/22 06:42:49;;;;;;;8.18;6.15;;;;;;;33.92;38.54;96802.75;5053328;28;20107;-69
2023/06/22 06:45:18;;;;;;;6.80;6.13;;;;;;;34.12;38.09;96799.28;5053356;28;20099;-69
2023/06/22 06:47:46;;;;;;;7.00;6.30;;;;;;;34.29;38.24;96807.94;5053254;28;20491;-69
2023/06/22 06:50:14;;;;;;;7.20;6.50;;;;;;;34.20;37.29;96804.56;5053173;28;20102;-69
2023/06/22 06:52:43;;;;;;;6.85;6.13;;;;;;;34.40;37.07;96807.31;5053217;28;20479;-69
2023/06/22 06:55:11;;;;;;;7.10;6.40;;;;;;;34.53;36.82;96809.22;5053168;28;20491;-69
2023/06/22 06:57:39;;;;;;;10.15;6.85;;;;;;;34.31;33.12;96813.16;5053109;28;20045;-69
2023/06/22 07:00:11;;;;;;;9.90;5.85;;;;;;;34.06;34.09;96811.78;5052893;28;20048;-69
2023/06/22 07:02:39;;;;;;;6.95;6.22;;;;;;;34.11;34.43;96808.47;5053073;28;20049;-69
2023/06/22 07:05:06;;;;;;;8.25;5.72;;;;;;;34.13;34.48;96809.13;5053082;28;20438;-69
2023/06/22 07:07:34;;;;;;;7.00;6.30;;;;;;;34.16;33.64;96809.53;5052957;28;20498;-69
2023/06/22 07:10:03;;;;;;;6.47;5.82;;;;;;;34.18;35.91;96814.78;5053024;28;20132;-69
2023/06/22 07:12:30;;;;;;;9.00;6.15;;;;;;;33.99;34.33;96809.03;5053024;28;20088;-69
2023/06/22 07:15:03;;;;;;;10.43;5.55;;;;;;;33.44;35.07;96815.19;5053027;28;20083;-69
2023/06/22 07:17:30;;;;;;;9.20;6.60;;;;;;;32.70;32.87;96804.56;5052935;28;20049;-69
2023/06/22 07:19:57;;;;;;;7.97;6.75;;;;;;;32.48;35.96;96800.97;5054487;28;20203;-69
2023/06/22 07:22:24;;;;;;;8.50;6.32;;;;;;;32.25;36.04;96805.53;5057117;28;20040;-69
2023/06/22 07:24:52;;;;;;;6.50;5.90;;;;;;;32.02;36.96;96802.94;5057153;28;20052;-69
2023/06/22 07:27:21;;;;;;;8.98;6.50;;;;;;;31.86;38.85;96806.66;5056943;28;20053;-69
2023/06/22 07:29:48;;;;;;;10.30;7.32;;;;;;;31.90;36.65;96810.66;5057012;28;20059;-69
2023/06/22 07:32:15;;;;;;;7.38;6.15;;;;;;;31.79;37.56;96814.69;5056984;28;20525;-69
2023/06/22 07:34:43;;;;;;;7.00;6.30;;;;;;;31.57;37.89;96809.19;5056859;28;20049;-69
2023/06/22 07:37:10;;;;;;;9.60;6.30;;;;;;;31.54;37.56;96808.75;5056820;28;20107;-69
2023/06/22 07:39:37;;;;;;;7.03;6.32;;;;;;;31.39;39.69;96809.53;5056664;28;20052;-69
2023/06/22 07:42:05;;;;;;;10.00;6.30;;;;;;;31.26;39.80;96808.31;5056758;28;20056;-69
2023/06/22 07:44:34;;;;;;;8.45;6.25;;;;;;;31.31;39.13;96806.91;5056659;28;20056;-69
2023/06/22 07:47:01;;;;;;;6.78;6.15;;;;;;;31.45;40.33;96806.09;5056535;28;20045;-69
2023/06/22 07:49:30;;;;;;;7.25;6.45;;;;;;;31.82;39.24;96803.50;5056651;28;20080;-69
2023/06/22 07:51:57;;;;;;;8.32;6.57;;;;;;;32.19;38.98;96810.84;5056664;28;20405;-69
2023/06/22 07:54:24;;;;;;;9.65;6.25;;;;;;;32.41;40.33;96800.88;5056442;28;20056;-69
2023/06/22 07:56:51;;;;;;;8.35;6.25;;;;;;;32.13;39.68;96799.75;5056469;28;20509;-69
2023/06/22 07:59:18;;;;;;;8.32;5.90;;;;;;;32.28;39.12;96805.13;5056277;28;20127;-69
2023/06/22 08:01:48;;;;;;;8.90;6.45;;;;;;;32.18;38.78;96801.06;5056368;28;20104;-69
2023/06/22 08:04:16;;;;;;;7.90;6.18;;;;;;;32.06;39.63;96798.84;5056453;28;20045;-69
2023/06/22 08:06:43;;;;;;;7.97;6.15;;;;;;;32.36;39.19;96806.88;5056378;28;20090;-69
2023/06/22 08:09:10;;;;;;;7.43;6.68;;;;;;;32.48;42.18;96799.13;5056184;28;20045;-69
2023/06/22 08:11:38;;;;;;;7.93;7.13;;;;;;;32.74;42.22;96799.56;5056148;28;20501;-69
2023/06/22 08:14:05;;;;;;;7.53;6.82;;;;;;;33.15;40.50;96804.34;5056284;28;20041;-69
2023/06/22 08:16:33;;;;;;;12.30;7.57;;;;;;;33.50;41.15;96806.25;5056159;28;20041;-69
2023/06/22 08:19:01;;;;;;;10.48;7.38;;;;;;;33.70;38.05;96808.25;5055968;28;20128;-69
2023/06/22 08:21:29;;;;;;;9.00;6.95;;;;;;;33.89;38.97;96808.59;5056051;28;20045;-69
2023/06/22 08:23:56;;;;;;;8.85;6.75;;;;;;;33.99;37.06;96819.06;5055898;28;20110;-69
2023/06/22 08:26:23;;;;;;;9.88;6.50;;;;;;;32.88;36.12;96816.78;5056129;28;20114;-69
2023/06/22 08:28:50;;;;;;;13.25;7.13;;;;;;;32.49;37.93;96806.22;5055717;28;20045;-69
2023/06/22 08:31:17;;;;;;;8.30;7.43;;;;;;;32.20;37.92;96802.53;5054676;28;20734;-69
2023/06/22 08:33:46;;;;;;;11.65;7.93;;;;;;;31.50;38.29;96803.69;5055737;28;20053;-69
2023/06/22 08:36:14;;;;;;;8.75;7.80;;;;;;;30.72;41.22;96801.97;5055739;28;20045;-69
2023/06/22 08:38:41;;;;;;;9.63;7.25;;;;;;;30.44;41.81;96798.97;5055657;28;20487;-69
2023/06/22 08:41:09;;;;;;;13.40;8.20;;;;;;;30.69;42.19;96801.50;5055593;28;20049;-69
2023/06/22 08:43:36;;;;;;;8.30;7.28;;;;;;;31.03;41.02;96797.53;5055551;28;20045;-69
2023/06/22 08:46:03;;;;;;;8.30;6.90;;;;;;;31.38;43.86;96797.06;5055524;28;20045;-69
2023/06/22 08:48:30;;;;;;;9.85;7.65;;;;;;;31.74;43.39;96803.59;5055433;28;20060;-69
2023/06/22 08:50:58;;;;;;;8.20;7.40;;;;;;;32.10;42.26;96797.44;5055496;28;20041;-69
2023/06/22 08:53:26;;;;;;;11.00;6.80;;;;;;;31.41;38.06;96802.09;5055465;28;20478;-69
2023/06/22 08:55:53;;;;;;;8.70;7.10;;;;;;;31.11;41.74;96802.03;5055440;28;20052;-69
2023/06/22 08:58:21;;;;;;;9.25;7.38;;;;;;;30.85;40.58;96805.97;5055289;28;20483;-69
2023/06/22 09:00:48;;;;;;;13.30;7.20;;;;;;;30.69;43.01;96799.66;5055138;28;20406;-69
2023/06/22 09:03:15;;;;;;;8.73;7.35;;;;;;;30.63;45.03;96798.50;5055169;28;20080;-69
2023/06/22 09:05:42;;;;;;;12.50;8.13;;;;;;;30.44;47.84;96798.97;5055205;28;20049;-69
2023/06/22 09:08:09;;;;;;;12.50;8.75;;;;;;;30.30;49.40;96809.50;5055134;28;20055;-69
2023/06/22 09:10:38;;;;;;;12.18;7.70;;;;;;;30.14;49.92;96802.34;5055172;28;20052;-70
2023/06/22 09:13:05;;;;;;;9.18;7.15;;;;;;;29.91;48.11;96807.69;5055089;28;20080;-69
2023/06/22 09:15:32;;;;;;;13.10;7.63;;;;;;;29.80;50.97;96803.50;5054913;28;20045;-69
2023/06/22 09:17:59;;;;;;;8.43;7.63;;;;;;;29.69;51.22;96810.94;5054943;28;20041;-69
2023/06/22 09:20:26;;;;;;;9.70;7.78;;;;;;;29.58;52.54;96797.81;5054962;28;20053;-69
2023/06/22 09:22:53;;;;;;;11.13;8.02;;;;;;;29.42;52.01;96794.16;5054842;28;20049;-69
2023/06/22 09:25:21;;;;;;;11.40;8.27;;;;;;;29.34;52.09;96797.69;5054812;28;20045;-69
2023/06/22 09:30:58;;;;;;;10.25;7.80;;;;;;;29.23;52.71;96798.88;5055026;28;20540;-69
2023/06/22 09:33:26;;;;;;;9.32;7.05;;;;;;;29.04;54.56;96799.28;5054615;28;20131;-70
2023/06/22 09:35:53;;;;;;;8.52;7.70;;;;;;;28.83;55.74;96797.91;5054644;28;20041;-69
2023/06/22 09:38:20;;;;;;;9.57;7.07;;;;;;;28.87;55.72;96796.56;5054449;28;20055;-69
2023/06/22 09:40:47;;;;;;;8.00;7.30;;;;;;;28.86;55.53;96806.47;5054463;28;20041;-69
2023/06/22 09:43:16;;;;;;;8.48;7.68;;;;;;;28.91;57.66;96805.97;5054213;28;20053;-70
2023/06/22 09:45:43;;;;;;;9.85;7.78;;;;;;;28.87;55.83;96801.94;5054479;28;20053;-69
2023/06/22 09:48:10;;;;;;;7.65;6.95;;;;;;;28.84;52.67;96804.97;5054607;28;20055;-70
2023/06/22 09:50:38;;;;;;;7.90;6.90;;;;;;;28.92;53.34;96807.63;5054396;28;20463;-69
2023/06/22 09:53:05;;;;;;;10.32;7.90;;;;;;;28.97;50.45;96808.03;5054242;28;20045;-69
2023/06/22 09:55:32;;;;;;;8.68;7.78;;;;;;;28.86;49.48;96808.31;5054342;28;20049;-69
2023/06/22 09:57:59;;;;;;;9.88;8.07;;;;;;;28.72;49.31;96799.06;5054111;28;20482;-69
2023/06/22 10:00:28;;;;;;;12.38;8.00;;;;;;;28.83;52.64;96797.91;5053856;28;20517;-70
2023/06/22 10:02:55;;;;;;;11.98;7.65;;;;;;;28.87;46.69;96802.75;5054118;28;20049;-69
2023/06/22 10:05:23;;;;;;;10.48;8.10;;;;;;;29.00;51.09;96799.59;5054319;28;20083;-69
2023/06/22 10:07:50;;;;;;;13.07;7.95;;;;;;;29.09;51.31;96802.28;5053855;28;20135;-69
2023/06/22 10:10:17;;;;;;;11.88;8.10;;;;;;;29.00;46.95;96802.31;5053891;28;20483;-69
2023/06/22 10:12:47;;;;;;;10.13;7.85;;;;;;;28.87;49.33;96792.00;5053891;28;20106;-69
2023/06/22 10:15:14;;;;;;;9.23;8.30;;;;;;;28.80;48.55;96793.69;5053816;28;20406;-69
2023/06/22 10:17:43;;;;;;;12.95;8.55;;;;;;;28.81;49.66;96798.06;5053748;28;20478;-69
2023/06/22 10:20:14;;;;;;;8.88;8.00;;;;;;;28.85;51.69;96788.66;5054001;28;20049;-69
2023/06/22 10:22:42;;;;;;;13.88;7.55;;;;;;;28.93;51.30;96805.81;5053678;28;20111;-69
2023/06/22 10:25:10;;;;;;;14.90;8.80;;;;;;;29.21;49.20;96806.31;5053624;28;20406;-69
2023/06/22 10:27:39;;;;;;;9.13;8.23;;;;;;;29.55;48.65;96801.72;5053531;28;20064;-69
2023/06/22 10:30:08;;;;;;;11.80;8.25;;;;;;;29.91;50.02;96796.91;5053744;28;20049;-69
2023/06/22 10:32:36;;;;;;;8.10;7.25;;;;;;;30.32;48.96;96791.31;5053492;28;20058;-69
2023/06/22 10:35:05;;;;;;;11.25;7.53;;;;;;;30.73;44.78;96790.16;5053409;28;20053;-69
2023/06/22 10:37:32;;;;;;;8.07;7.05;;;;;;;30.88;41.82;96787.53;5053376;28;20049;-69
2023/06/22 10:40:00;;;;;;;11.10;7.65;;;;;;;30.84;39.61;96786.22;5053367;28;20055;-69
2023/06/22 10:42:27;;;;;;;10.23;8.27;;;;;;;30.83;42.38;96779.16;5053338;28;20495;-69
2023/06/22 10:44:54;;;;;;;9.30;7.43;;;;;;;30.81;43.76;96773.09;5053235;28;20099;-69
2023/06/22 10:47:21;;;;;;;7.50;6.80;;;;;;;30.91;46.43;96774.72;5053142;28;20056;-69
2023/06/22 10:49:48;;;;;;;8.15;7.40;;;;;;;31.00;47.39;96771.75;5053311;28;20041;-69
2023/06/22 10:52:17;;;;;;;10.43;7.68;;;;;;;31.18;44.63;96775.97;5053257;28;20049;-69
2023/06/22 10:54:44;;;;;;;8.00;7.30;;;;;;;31.30;46.13;96776.34;5052758;28;20504;-69
2023/06/22 10:57:11;;;;;;;10.98;7.32;;;;;;;31.43;41.21;96772.19;5053205;28;20613;-69
2023/06/22 10:59:38;;;;;;;9.93;7.35;;;;;;;31.53;41.97;96759.25;5053066;28;20380;-69
2023/06/22 11:02:06;;;;;;;8.95;7.60;;;;;;;31.62;43.38;96759.97;5053231;28;20041;-69
2023/06/22 11:04:33;;;;;;;8.00;7.30;;;;;;;31.67;42.69;96760.28;5053293;28;20510;-69
2023/06/22 11:07:01;;;;;;;8.98;7.20;;;;;;;31.71;42.14;96761.56;5053001;28;20102;-69
2023/06/22 11:09:29;;;;;;;8.82;7.13;;;;;;;31.60;45.74;96762.06;5052986;28;20049;-69
2023/06/22 11:11:58;;;;;;;8.73;7.82;;;;;;;31.49;43.90;96752.53;5052879;28;20048;-69
2023/06/22 11:14:26;;;;;;;9.82;7.05;;;;;;;31.64;44.17;96758.75;5052877;28;20049;-69
2023/06/22 11:16:53;;;;;;;8.98;8.05;;;;;;;31.65;44.84;96759.63;5052880;28;20049;-69
2023/06/22 11:19:20;;;;;;;9.07;7.35;;;;;;;31.62;45.43;96757.28;5052924;28;20053;-69
2023/06/22 11:21:48;;;;;;;7.63;6.85;;;;;;;31.83;41.08;96755.66;5052875;28;20052;-69
2023/06/22 11:24:15;;;;;;;10.38;7.30;;;;;;;31.84;43.42;96750.06;5052893;28;20053;-69
2023/06/22 11:26:44;;;;;;;7.90;7.20;;;;;;;31.83;45.34;96751.13;5052789;28;20501;-69
2023/06/22 11:29:11;;;;;;;7.53;6.60;;;;;;;31.71;38.53;96750.75;5052930;28;20391;-69
2023/06/22 11:31:39;;;;;;;8.52;6.22;;;;;;;31.31;38.59;96748.31;5052755;28;20041;-69
2023/06/22 11:34:06;;;;;;;9.35;5.82;;;;;;;30.83;37.28;96751.31;5053009;28;20049;-69
2023/06/22 11:36:35;;;;;;;6.43;5.82;;;;;;;30.67;36.02;96749.56;5052755;28;20445;-69